sensor_id;sensor_type;location;lat;lon;timestamp;P1;durP1;ratioP1;P2;durP2;ratioP2
37903;SDS011;23738;50.422;18.758;2024-03-08T00:01:53;76.10;;;36.80;;
37903;SDS011;23738;50.422;18.758;2024-03-08T00:04:23;81.20;;;38.20;;
37903;SDS011;23738;50.422;18.758;2024-03-08T00:06:52;81.60;;;37.80;;
37903;SDS011;23738;50.422;18.758;2024-03-08T00:09:22;84.50;;;37.30;;
37903;SDS011;23738;50.422;18.758;2024-03-08T00:11:54;81.70;;;37.90;;
37903;SDS011;23738;50.422;18.758;2024-03-08T00:14:25;86.60;;;39.70;;
37903;SDS011;23738;50.422;18.758;2024-03-08T00:16:55;88.40;;;40.00;;
37903;SDS011;23738;50.422;18.758;2024-03-08T00:19:24;88.10;;;38.00;;
37903;SDS011;23738;50.422;18.758;2024-03-08T00:21:54;97.50;;;39.70;;
37903;SDS011;23738;50.422;18.758;2024-03-08T00:24:23;87.40;;;37.10;;
37903;SDS011;23738;50.422;18.758;2024-03-08T00:26:54;88.10;;;39.20;;
37903;SDS011;23738;50.422;18.758;2024-03-08T00:29:23;85.10;;;39.10;;
37903;SDS011;23738;50.422;18.758;2024-03-08T00:31:54;92.80;;;39.40;;
37903;SDS011;23738;50.422;18.758;2024-03-08T00:34:24;93.40;;;41.00;;
37903;SDS011;23738;50.422;18.758;2024-03-08T00:36:54;94.50;;;43.30;;
37903;SDS011;23738;50.422;18.758;2024-03-08T00:39:23;98.60;;;42.90;;
37903;SDS011;23738;50.422;18.758;2024-03-08T00:41:53;96.60;;;42.90;;
37903;SDS011;23738;50.422;18.758;2024-03-08T00:44:23;96.80;;;44.30;;
37903;SDS011;23738;50.422;18.758;2024-03-08T00:46:52;85.30;;;39.50;;
37903;SDS011;23738;50.422;18.758;2024-03-08T00:49:21;94.70;;;39.80;;
37903;SDS011;23738;50.422;18.758;2024-03-08T00:51:51;92.00;;;39.90;;
37903;SDS011;23738;50.422;18.758;2024-03-08T00:54:21;80.90;;;37.60;;
37903;SDS011;23738;50.422;18.758;2024-03-08T00:56:50;90.10;;;39.20;;
37903;SDS011;23738;50.422;18.758;2024-03-08T00:59:20;81.60;;;36.70;;
37903;SDS011;23738;50.422;18.758;2024-03-08T01:01:49;78.40;;;36.10;;
37903;SDS011;23738;50.422;18.758;2024-03-08T01:04:19;81.40;;;37.30;;
37903;SDS011;23738;50.422;18.758;2024-03-08T01:06:49;80.80;;;38.50;;
37903;SDS011;23738;50.422;18.758;2024-03-08T01:09:19;75.50;;;36.60;;
37903;SDS011;23738;50.422;18.758;2024-03-08T01:11:49;77.10;;;36.40;;
37903;SDS011;23738;50.422;18.758;2024-03-08T01:14:21;78.80;;;37.20;;
37903;SDS011;23738;50.422;18.758;2024-03-08T01:16:52;78.60;;;37.60;;
37903;SDS011;23738;50.422;18.758;2024-03-08T01:19:21;73.70;;;33.70;;
37903;SDS011;23738;50.422;18.758;2024-03-08T01:21:51;80.40;;;35.30;;
37903;SDS011;23738;50.422;18.758;2024-03-08T01:24:22;76.70;;;33.60;;
37903;SDS011;23738;50.422;18.758;2024-03-08T01:26:51;78.30;;;35.20;;
37903;SDS011;23738;50.422;18.758;2024-03-08T01:29:21;74.60;;;34.30;;
37903;SDS011;23738;50.422;18.758;2024-03-08T01:31:50;72.70;;;35.70;;
37903;SDS011;23738;50.422;18.758;2024-03-08T01:34:20;77.30;;;35.20;;
37903;SDS011;23738;50.422;18.758;2024-03-08T01:36:50;76.80;;;34.80;;
37903;SDS011;23738;50.422;18.758;2024-03-08T01:39:20;82.70;;;38.30;;
37903;SDS011;23738;50.422;18.758;2024-03-08T01:41:49;78.70;;;36.90;;
37903;SDS011;23738;50.422;18.758;2024-03-08T01:44:20;87.30;;;39.70;;
37903;SDS011;23738;50.422;18.758;2024-03-08T01:46:50;67.30;;;35.30;;
37903;SDS011;23738;50.422;18.758;2024-03-08T01:49:21;79.50;;;35.70;;
37903;SDS011;23738;50.422;18.758;2024-03-08T01:51:52;71.30;;;34.80;;
37903;SDS011;23738;50.422;18.758;2024-03-08T01:54:23;78.90;;;35.20;;
37903;SDS011;23738;50.422;18.758;2024-03-08T01:56:54;67.70;;;34.40;;
37903;SDS011;23738;50.422;18.758;2024-03-08T01:59:25;71.10;;;33.60;;
37903;SDS011;23738;50.422;18.758;2024-03-08T02:01:56;74.80;;;33.80;;
37903;SDS011;23738;50.422;18.758;2024-03-08T02:04:31;71.70;;;33.50;;
37903;SDS011;23738;50.422;18.758;2024-03-08T02:07:03;70.90;;;34.50;;
37903;SDS011;23738;50.422;18.758;2024-03-08T02:09:33;79.90;;;35.70;;
37903;SDS011;23738;50.422;18.758;2024-03-08T02:12:03;76.80;;;34.30;;
37903;SDS011;23738;50.422;18.758;2024-03-08T02:14:34;74.80;;;35.30;;
37903;SDS011;23738;50.422;18.758;2024-03-08T02:17:04;75.60;;;34.30;;
37903;SDS011;23738;50.422;18.758;2024-03-08T02:19:34;83.20;;;34.40;;
37903;SDS011;23738;50.422;18.758;2024-03-08T02:22:03;65.80;;;32.50;;
37903;SDS011;23738;50.422;18.758;2024-03-08T02:24:34;77.20;;;34.30;;
37903;SDS011;23738;50.422;18.758;2024-03-08T02:27:04;77.80;;;33.80;;
37903;SDS011;23738;50.422;18.758;2024-03-08T02:29:34;74.20;;;33.50;;
37903;SDS011;23738;50.422;18.758;2024-03-08T02:32:05;70.80;;;33.30;;
37903;SDS011;23738;50.422;18.758;2024-03-08T02:34:35;79.10;;;36.80;;
37903;SDS011;23738;50.422;18.758;2024-03-08T02:37:05;71.20;;;33.70;;
37903;SDS011;23738;50.422;18.758;2024-03-08T02:39:35;78.30;;;36.50;;
37903;SDS011;23738;50.422;18.758;2024-03-08T02:42:05;71.50;;;33.80;;
37903;SDS011;23738;50.422;18.758;2024-03-08T02:44:34;72.90;;;33.60;;
37903;SDS011;23738;50.422;18.758;2024-03-08T02:47:04;63.40;;;31.40;;
37903;SDS011;23738;50.422;18.758;2024-03-08T02:49:34;67.90;;;31.70;;
37903;SDS011;23738;50.422;18.758;2024-03-08T02:52:05;70.50;;;31.10;;
37903;SDS011;23738;50.422;18.758;2024-03-08T02:54:34;69.80;;;33.00;;
37903;SDS011;23738;50.422;18.758;2024-03-08T02:57:04;58.50;;;30.10;;
37903;SDS011;23738;50.422;18.758;2024-03-08T02:59:34;66.80;;;31.60;;
37903;SDS011;23738;50.422;18.758;2024-03-08T03:02:06;63.00;;;29.10;;
37903;SDS011;23738;50.422;18.758;2024-03-08T03:04:36;62.50;;;31.40;;
37903;SDS011;23738;50.422;18.758;2024-03-08T03:07:08;67.20;;;31.80;;
37903;SDS011;23738;50.422;18.758;2024-03-08T03:09:38;68.50;;;30.90;;
37903;SDS011;23738;50.422;18.758;2024-03-08T03:12:09;63.10;;;30.50;;
37903;SDS011;23738;50.422;18.758;2024-03-08T03:14:39;69.10;;;31.60;;
37903;SDS011;23738;50.422;18.758;2024-03-08T03:17:08;66.70;;;30.40;;
37903;SDS011;23738;50.422;18.758;2024-03-08T03:19:38;61.50;;;29.60;;
37903;SDS011;23738;50.422;18.758;2024-03-08T03:22:10;60.20;;;30.50;;
37903;SDS011;23738;50.422;18.758;2024-03-08T03:24:39;59.60;;;28.60;;
37903;SDS011;23738;50.422;18.758;2024-03-08T03:27:09;62.90;;;28.40;;
37903;SDS011;23738;50.422;18.758;2024-03-08T03:29:39;66.30;;;30.30;;
37903;SDS011;23738;50.422;18.758;2024-03-08T03:32:12;64.50;;;31.00;;
37903;SDS011;23738;50.422;18.758;2024-03-08T03:34:45;64.40;;;32.00;;
37903;SDS011;23738;50.422;18.758;2024-03-08T03:37:15;61.60;;;31.20;;
37903;SDS011;23738;50.422;18.758;2024-03-08T03:39:46;64.60;;;32.30;;
37903;SDS011;23738;50.422;18.758;2024-03-08T03:42:18;57.50;;;29.10;;
37903;SDS011;23738;50.422;18.758;2024-03-08T03:44:48;56.00;;;27.90;;
37903;SDS011;23738;50.422;18.758;2024-03-08T03:47:18;50.60;;;27.20;;
37903;SDS011;23738;50.422;18.758;2024-03-08T03:49:48;61.90;;;30.30;;
37903;SDS011;23738;50.422;18.758;2024-03-08T03:52:20;66.20;;;28.90;;
37903;SDS011;23738;50.422;18.758;2024-03-08T03:54:50;55.50;;;28.10;;
37903;SDS011;23738;50.422;18.758;2024-03-08T03:57:19;67.80;;;30.40;;
37903;SDS011;23738;50.422;18.758;2024-03-08T03:59:49;57.90;;;29.10;;
37903;SDS011;23738;50.422;18.758;2024-03-08T04:02:19;54.80;;;28.00;;
37903;SDS011;23738;50.422;18.758;2024-03-08T04:04:49;55.30;;;28.50;;
37903;SDS011;23738;50.422;18.758;2024-03-08T04:07:18;54.00;;;28.00;;
37903;SDS011;23738;50.422;18.758;2024-03-08T04:09:48;52.30;;;27.60;;
37903;SDS011;23738;50.422;18.758;2024-03-08T04:12:18;53.70;;;27.50;;
37903;SDS011;23738;50.422;18.758;2024-03-08T04:14:48;55.10;;;28.30;;
37903;SDS011;23738;50.422;18.758;2024-03-08T04:17:17;57.20;;;29.10;;
37903;SDS011;23738;50.422;18.758;2024-03-08T04:19:47;56.00;;;30.20;;
37903;SDS011;23738;50.422;18.758;2024-03-08T04:22:17;68.70;;;31.10;;
37903;SDS011;23738;50.422;18.758;2024-03-08T04:24:46;55.10;;;29.50;;
37903;SDS011;23738;50.422;18.758;2024-03-08T04:27:17;53.40;;;28.20;;
37903;SDS011;23738;50.422;18.758;2024-03-08T04:29:46;56.50;;;27.90;;
37903;SDS011;23738;50.422;18.758;2024-03-08T04:32:16;63.00;;;28.90;;
37903;SDS011;23738;50.422;18.758;2024-03-08T04:34:45;54.20;;;27.70;;
37903;SDS011;23738;50.422;18.758;2024-03-08T04:37:16;59.60;;;28.10;;
37903;SDS011;23738;50.422;18.758;2024-03-08T04:39:47;56.90;;;28.30;;
37903;SDS011;23738;50.422;18.758;2024-03-08T04:42:17;56.00;;;28.60;;
37903;SDS011;23738;50.422;18.758;2024-03-08T04:44:46;54.70;;;27.90;;
37903;SDS011;23738;50.422;18.758;2024-03-08T04:47:16;61.80;;;30.30;;
37903;SDS011;23738;50.422;18.758;2024-03-08T04:49:46;49.80;;;27.40;;
37903;SDS011;23738;50.422;18.758;2024-03-08T04:52:17;51.10;;;28.00;;
37903;SDS011;23738;50.422;18.758;2024-03-08T04:54:46;53.70;;;28.30;;
37903;SDS011;23738;50.422;18.758;2024-03-08T04:57:16;54.80;;;28.10;;
37903;SDS011;23738;50.422;18.758;2024-03-08T04:59:45;60.80;;;27.00;;
37903;SDS011;23738;50.422;18.758;2024-03-08T05:02:15;53.10;;;26.30;;
37903;SDS011;23738;50.422;18.758;2024-03-08T05:04:45;61.60;;;30.60;;
37903;SDS011;23738;50.422;18.758;2024-03-08T05:07:14;60.20;;;29.80;;
37903;SDS011;23738;50.422;18.758;2024-03-08T05:09:44;60.40;;;33.40;;
37903;SDS011;23738;50.422;18.758;2024-03-08T05:12:18;69.40;;;38.10;;
37903;SDS011;23738;50.422;18.758;2024-03-08T05:14:49;70.00;;;36.60;;
37903;SDS011;23738;50.422;18.758;2024-03-08T05:17:18;82.10;;;45.40;;
37903;SDS011;23738;50.422;18.758;2024-03-08T05:19:50;105.20;;;65.10;;
37903;SDS011;23738;50.422;18.758;2024-03-08T05:22:20;84.10;;;44.70;;
37903;SDS011;23738;50.422;18.758;2024-03-08T05:24:50;68.70;;;38.10;;
37903;SDS011;23738;50.422;18.758;2024-03-08T05:27:19;67.60;;;36.00;;
37903;SDS011;23738;50.422;18.758;2024-03-08T05:29:49;80.30;;;40.10;;
37903;SDS011;23738;50.422;18.758;2024-03-08T05:32:19;91.50;;;42.30;;
37903;SDS011;23738;50.422;18.758;2024-03-08T05:34:49;84.00;;;42.60;;
37903;SDS011;23738;50.422;18.758;2024-03-08T05:37:19;76.80;;;41.20;;
37903;SDS011;23738;50.422;18.758;2024-03-08T05:39:48;80.20;;;41.40;;
37903;SDS011;23738;50.422;18.758;2024-03-08T05:42:18;85.70;;;40.40;;
37903;SDS011;23738;50.422;18.758;2024-03-08T05:44:48;93.40;;;41.70;;
37903;SDS011;23738;50.422;18.758;2024-03-08T05:47:18;86.80;;;41.30;;
37903;SDS011;23738;50.422;18.758;2024-03-08T05:49:47;72.10;;;34.60;;
37903;SDS011;23738;50.422;18.758;2024-03-08T05:52:20;71.40;;;32.10;;
37903;SDS011;23738;50.422;18.758;2024-03-08T05:54:50;64.50;;;30.90;;
37903;SDS011;23738;50.422;18.758;2024-03-08T05:57:19;72.60;;;35.20;;
37903;SDS011;23738;50.422;18.758;2024-03-08T05:59:49;68.70;;;33.90;;
37903;SDS011;23738;50.422;18.758;2024-03-08T06:02:19;67.70;;;33.00;;
37903;SDS011;23738;50.422;18.758;2024-03-08T06:04:48;75.00;;;34.30;;
37903;SDS011;23738;50.422;18.758;2024-03-08T06:07:18;71.50;;;35.10;;
37903;SDS011;23738;50.422;18.758;2024-03-08T06:09:48;83.00;;;37.10;;
37903;SDS011;23738;50.422;18.758;2024-03-08T06:12:18;80.90;;;37.80;;
37903;SDS011;23738;50.422;18.758;2024-03-08T06:14:47;87.10;;;39.90;;
37903;SDS011;23738;50.422;18.758;2024-03-08T06:17:17;87.50;;;40.20;;
37903;SDS011;23738;50.422;18.758;2024-03-08T06:19:46;86.40;;;39.40;;
37903;SDS011;23738;50.422;18.758;2024-03-08T06:22:17;97.60;;;43.80;;
37903;SDS011;23738;50.422;18.758;2024-03-08T06:24:46;88.40;;;41.90;;
37903;SDS011;23738;50.422;18.758;2024-03-08T06:27:16;86.00;;;42.00;;
37903;SDS011;23738;50.422;18.758;2024-03-08T06:29:46;77.70;;;40.20;;
37903;SDS011;23738;50.422;18.758;2024-03-08T06:32:15;87.10;;;41.90;;
37903;SDS011;23738;50.422;18.758;2024-03-08T06:34:45;93.20;;;42.70;;
37903;SDS011;23738;50.422;18.758;2024-03-08T06:37:15;88.00;;;38.10;;
37903;SDS011;23738;50.422;18.758;2024-03-08T06:39:48;84.90;;;40.50;;
37903;SDS011;23738;50.422;18.758;2024-03-08T06:42:21;85.30;;;40.80;;
37903;SDS011;23738;50.422;18.758;2024-03-08T06:44:50;85.90;;;39.40;;
37903;SDS011;23738;50.422;18.758;2024-03-08T06:47:22;77.50;;;37.20;;
37903;SDS011;23738;50.422;18.758;2024-03-08T06:49:52;74.60;;;36.20;;
37903;SDS011;23738;50.422;18.758;2024-03-08T06:52:22;76.60;;;37.40;;
37903;SDS011;23738;50.422;18.758;2024-03-08T06:54:51;84.80;;;37.80;;
37903;SDS011;23738;50.422;18.758;2024-03-08T06:57:21;87.10;;;40.30;;
37903;SDS011;23738;50.422;18.758;2024-03-08T06:59:51;80.90;;;38.30;;
37903;SDS011;23738;50.422;18.758;2024-03-08T07:02:21;79.30;;;36.00;;
37903;SDS011;23738;50.422;18.758;2024-03-08T07:04:52;71.10;;;35.10;;
37903;SDS011;23738;50.422;18.758;2024-03-08T07:07:22;71.20;;;34.70;;
37903;SDS011;23738;50.422;18.758;2024-03-08T07:09:53;71.50;;;36.80;;
37903;SDS011;23738;50.422;18.758;2024-03-08T07:12:23;70.30;;;37.30;;
37903;SDS011;23738;50.422;18.758;2024-03-08T07:14:53;78.00;;;39.00;;
37903;SDS011;23738;50.422;18.758;2024-03-08T07:17:23;85.70;;;40.60;;
37903;SDS011;23738;50.422;18.758;2024-03-08T07:19:52;78.80;;;40.30;;
37903;SDS011;23738;50.422;18.758;2024-03-08T07:22:23;81.80;;;40.60;;
37903;SDS011;23738;50.422;18.758;2024-03-08T07:24:53;75.30;;;38.60;;
37903;SDS011;23738;50.422;18.758;2024-03-08T07:27:42;74.40;;;39.60;;
37903;SDS011;23738;50.422;18.758;2024-03-08T07:30:13;55.30;;;31.50;;
37903;SDS011;23738;50.422;18.758;2024-03-08T07:33:05;49.60;;;27.90;;
37903;SDS011;23738;50.422;18.758;2024-03-08T07:35:38;53.20;;;30.80;;
37903;SDS011;23738;50.422;18.758;2024-03-08T07:38:08;49.40;;;30.00;;
37903;SDS011;23738;50.422;18.758;2024-03-08T07:40:39;48.90;;;29.20;;
37903;SDS011;23738;50.422;18.758;2024-03-08T07:43:11;51.00;;;27.70;;
37903;SDS011;23738;50.422;18.758;2024-03-08T07:45:41;51.40;;;29.70;;
37903;SDS011;23738;50.422;18.758;2024-03-08T07:48:10;49.60;;;26.90;;
37903;SDS011;23738;50.422;18.758;2024-03-08T07:50:40;38.60;;;23.90;;
37903;SDS011;23738;50.422;18.758;2024-03-08T07:53:10;42.80;;;25.70;;
37903;SDS011;23738;50.422;18.758;2024-03-08T07:55:40;46.70;;;28.50;;
37903;SDS011;23738;50.422;18.758;2024-03-08T07:58:11;39.80;;;26.80;;
37903;SDS011;23738;50.422;18.758;2024-03-08T08:00:41;45.60;;;28.00;;
37903;SDS011;23738;50.422;18.758;2024-03-08T08:03:11;40.10;;;24.40;;
37903;SDS011;23738;50.422;18.758;2024-03-08T08:05:41;38.50;;;23.20;;
37903;SDS011;23738;50.422;18.758;2024-03-08T08:08:12;41.10;;;23.90;;
37903;SDS011;23738;50.422;18.758;2024-03-08T08:10:42;39.50;;;24.70;;
37903;SDS011;23738;50.422;18.758;2024-03-08T08:13:12;43.40;;;25.90;;
37903;SDS011;23738;50.422;18.758;2024-03-08T08:15:42;43.70;;;27.00;;
37903;SDS011;23738;50.422;18.758;2024-03-08T08:18:12;45.80;;;28.00;;
37903;SDS011;23738;50.422;18.758;2024-03-08T08:20:42;52.80;;;30.30;;
37903;SDS011;23738;50.422;18.758;2024-03-08T08:23:11;52.80;;;27.90;;
37903;SDS011;23738;50.422;18.758;2024-03-08T08:25:41;44.80;;;25.10;;
37903;SDS011;23738;50.422;18.758;2024-03-08T08:28:11;43.40;;;23.90;;
37903;SDS011;23738;50.422;18.758;2024-03-08T08:30:41;44.90;;;26.30;;
37903;SDS011;23738;50.422;18.758;2024-03-08T08:33:10;51.50;;;29.90;;
37903;SDS011;23738;50.422;18.758;2024-03-08T08:35:40;47.50;;;28.70;;
37903;SDS011;23738;50.422;18.758;2024-03-08T08:38:10;47.30;;;28.00;;
37903;SDS011;23738;50.422;18.758;2024-03-08T08:40:40;49.30;;;28.90;;
37903;SDS011;23738;50.422;18.758;2024-03-08T08:43:10;46.30;;;28.00;;
37903;SDS011;23738;50.422;18.758;2024-03-08T08:45:39;50.00;;;26.60;;
37903;SDS011;23738;50.422;18.758;2024-03-08T08:48:09;53.30;;;26.60;;
37903;SDS011;23738;50.422;18.758;2024-03-08T08:50:39;39.20;;;25.10;;
37903;SDS011;23738;50.422;18.758;2024-03-08T08:53:11;39.90;;;26.70;;
37903;SDS011;23738;50.422;18.758;2024-03-08T08:55:41;44.30;;;27.40;;
37903;SDS011;23738;50.422;18.758;2024-03-08T08:58:12;50.60;;;29.00;;
37903;SDS011;23738;50.422;18.758;2024-03-08T09:00:41;49.00;;;30.30;;
37903;SDS011;23738;50.422;18.758;2024-03-08T09:03:11;43.30;;;27.70;;
37903;SDS011;23738;50.422;18.758;2024-03-08T09:05:42;46.00;;;27.60;;
37903;SDS011;23738;50.422;18.758;2024-03-08T09:08:12;42.60;;;23.90;;
37903;SDS011;23738;50.422;18.758;2024-03-08T09:10:41;41.10;;;25.20;;
37903;SDS011;23738;50.422;18.758;2024-03-08T09:13:12;46.10;;;28.20;;
37903;SDS011;23738;50.422;18.758;2024-03-08T09:15:43;48.10;;;27.60;;
37903;SDS011;23738;50.422;18.758;2024-03-08T09:18:13;43.30;;;28.20;;
37903;SDS011;23738;50.422;18.758;2024-03-08T09:20:42;46.10;;;27.60;;
37903;SDS011;23738;50.422;18.758;2024-03-08T09:23:12;51.40;;;28.10;;
37903;SDS011;23738;50.422;18.758;2024-03-08T09:25:43;46.40;;;26.90;;
37903;SDS011;23738;50.422;18.758;2024-03-08T09:28:13;48.60;;;26.40;;
37903;SDS011;23738;50.422;18.758;2024-03-08T09:30:43;42.70;;;26.50;;
37903;SDS011;23738;50.422;18.758;2024-03-08T09:33:13;47.30;;;26.60;;
37903;SDS011;23738;50.422;18.758;2024-03-08T09:35:46;43.10;;;27.20;;
37903;SDS011;23738;50.422;18.758;2024-03-08T09:38:17;48.30;;;28.90;;
37903;SDS011;23738;50.422;18.758;2024-03-08T09:40:47;40.90;;;26.80;;
37903;SDS011;23738;50.422;18.758;2024-03-08T09:43:17;50.30;;;25.50;;
37903;SDS011;23738;50.422;18.758;2024-03-08T09:45:47;40.30;;;24.40;;
37903;SDS011;23738;50.422;18.758;2024-03-08T09:48:18;37.70;;;24.10;;
37903;SDS011;23738;50.422;18.758;2024-03-08T09:50:49;39.20;;;24.80;;
37903;SDS011;23738;50.422;18.758;2024-03-08T09:53:21;47.70;;;28.80;;
37903;SDS011;23738;50.422;18.758;2024-03-08T09:55:50;37.40;;;26.90;;
37903;SDS011;23738;50.422;18.758;2024-03-08T09:58:20;54.20;;;26.60;;
37903;SDS011;23738;50.422;18.758;2024-03-08T10:01:20;40.10;;;27.20;;
37903;SDS011;23738;50.422;18.758;2024-03-08T10:03:53;53.10;;;29.40;;
37903;SDS011;23738;50.422;18.758;2024-03-08T10:06:24;41.60;;;26.90;;
37903;SDS011;23738;50.422;18.758;2024-03-08T10:08:53;43.90;;;28.60;;
37903;SDS011;23738;50.422;18.758;2024-03-08T10:11:23;37.00;;;25.70;;
37903;SDS011;23738;50.422;18.758;2024-03-08T10:13:55;38.40;;;27.40;;
37903;SDS011;23738;50.422;18.758;2024-03-08T10:16:25;42.20;;;28.40;;
37903;SDS011;23738;50.422;18.758;2024-03-08T10:18:56;39.40;;;26.60;;
37903;SDS011;23738;50.422;18.758;2024-03-08T10:21:26;39.80;;;27.00;;
37903;SDS011;23738;50.422;18.758;2024-03-08T10:23:57;40.30;;;28.10;;
37903;SDS011;23738;50.422;18.758;2024-03-08T10:26:26;40.70;;;27.40;;
37903;SDS011;23738;50.422;18.758;2024-03-08T10:28:55;48.30;;;30.70;;
37903;SDS011;23738;50.422;18.758;2024-03-08T10:31:34;44.70;;;28.90;;
37903;SDS011;23738;50.422;18.758;2024-03-08T10:34:06;42.50;;;28.10;;
37903;SDS011;23738;50.422;18.758;2024-03-08T10:36:36;40.90;;;24.10;;
37903;SDS011;23738;50.422;18.758;2024-03-08T10:39:09;38.80;;;23.80;;
37903;SDS011;23738;50.422;18.758;2024-03-08T10:41:50;38.00;;;25.30;;
37903;SDS011;23738;50.422;18.758;2024-03-08T10:44:35;40.00;;;25.30;;
37903;SDS011;23738;50.422;18.758;2024-03-08T10:47:17;37.20;;;24.70;;
37903;SDS011;23738;50.422;18.758;2024-03-08T10:49:54;33.40;;;24.50;;
37903;SDS011;23738;50.422;18.758;2024-03-08T10:52:31;40.20;;;25.40;;
37903;SDS011;23738;50.422;18.758;2024-03-08T10:55:04;42.20;;;26.80;;
37903;SDS011;23738;50.422;18.758;2024-03-08T10:57:39;37.40;;;26.40;;
37903;SDS011;23738;50.422;18.758;2024-03-08T11:00:11;40.50;;;26.60;;
37903;SDS011;23738;50.422;18.758;2024-03-08T11:02:45;43.80;;;26.80;;
37903;SDS011;23738;50.422;18.758;2024-03-08T11:05:21;38.40;;;25.90;;
37903;SDS011;23738;50.422;18.758;2024-03-08T11:08:06;31.10;;;24.10;;
37903;SDS011;23738;50.422;18.758;2024-03-08T11:10:50;34.60;;;24.10;;
37903;SDS011;23738;50.422;18.758;2024-03-08T11:13:34;33.70;;;24.80;;
37903;SDS011;23738;50.422;18.758;2024-03-08T11:16:08;35.50;;;23.80;;
37903;SDS011;23738;50.422;18.758;2024-03-08T11:18:39;38.20;;;24.60;;
37903;SDS011;23738;50.422;18.758;2024-03-08T11:21:09;35.50;;;25.80;;
37903;SDS011;23738;50.422;18.758;2024-03-08T11:23:40;35.80;;;25.30;;
37903;SDS011;23738;50.422;18.758;2024-03-08T11:26:18;40.20;;;27.00;;
37903;SDS011;23738;50.422;18.758;2024-03-08T11:28:50;32.80;;;25.30;;
37903;SDS011;23738;50.422;18.758;2024-03-08T11:31:25;38.00;;;24.90;;
37903;SDS011;23738;50.422;18.758;2024-03-08T11:33:56;31.00;;;24.50;;
37903;SDS011;23738;50.422;18.758;2024-03-08T11:36:26;36.90;;;24.00;;
37903;SDS011;23738;50.422;18.758;2024-03-08T11:38:57;32.90;;;25.70;;
37903;SDS011;23738;50.422;18.758;2024-03-08T11:41:36;31.20;;;24.00;;
37903;SDS011;23738;50.422;18.758;2024-03-08T11:44:08;36.80;;;26.50;;
37903;SDS011;23738;50.422;18.758;2024-03-08T11:46:42;35.60;;;24.30;;
37903;SDS011;23738;50.422;18.758;2024-03-08T11:49:14;44.60;;;25.80;;
37903;SDS011;23738;50.422;18.758;2024-03-08T11:51:43;86.10;;;47.30;;
37903;SDS011;23738;50.422;18.758;2024-03-08T11:54:14;52.70;;;31.40;;
37903;SDS011;23738;50.422;18.758;2024-03-08T11:56:44;45.30;;;29.30;;
37903;SDS011;23738;50.422;18.758;2024-03-08T11:59:14;45.90;;;27.20;;
37903;SDS011;23738;50.422;18.758;2024-03-08T12:01:44;42.40;;;27.50;;
37903;SDS011;23738;50.422;18.758;2024-03-08T12:04:29;37.10;;;26.20;;
37903;SDS011;23738;50.422;18.758;2024-03-08T12:07:02;40.00;;;26.10;;
37903;SDS011;23738;50.422;18.758;2024-03-08T12:09:36;35.10;;;24.60;;
37903;SDS011;23738;50.422;18.758;2024-03-08T12:12:07;37.90;;;24.70;;
37903;SDS011;23738;50.422;18.758;2024-03-08T12:14:38;36.00;;;24.40;;
37903;SDS011;23738;50.422;18.758;2024-03-08T12:17:11;37.30;;;26.00;;
37903;SDS011;23738;50.422;18.758;2024-03-08T12:19:41;35.50;;;24.70;;
37903;SDS011;23738;50.422;18.758;2024-03-08T12:22:15;37.60;;;25.10;;
37903;SDS011;23738;50.422;18.758;2024-03-08T12:25:02;39.20;;;25.60;;
37903;SDS011;23738;50.422;18.758;2024-03-08T12:27:37;37.50;;;26.30;;
37903;SDS011;23738;50.422;18.758;2024-03-08T12:30:18;38.00;;;25.00;;
37903;SDS011;23738;50.422;18.758;2024-03-08T12:32:50;35.00;;;24.90;;
37903;SDS011;23738;50.422;18.758;2024-03-08T12:35:23;33.50;;;24.60;;
37903;SDS011;23738;50.422;18.758;2024-03-08T12:37:55;34.40;;;24.20;;
37903;SDS011;23738;50.422;18.758;2024-03-08T12:40:28;41.10;;;25.10;;
37903;SDS011;23738;50.422;18.758;2024-03-08T12:42:59;30.90;;;23.10;;
37903;SDS011;23738;50.422;18.758;2024-03-08T12:45:29;36.20;;;25.00;;
37903;SDS011;23738;50.422;18.758;2024-03-08T12:47:59;38.50;;;25.60;;
37903;SDS011;23738;50.422;18.758;2024-03-08T12:50:29;33.00;;;23.60;;
37903;SDS011;23738;50.422;18.758;2024-03-08T12:52:59;35.80;;;25.30;;
37903;SDS011;23738;50.422;18.758;2024-03-08T12:55:30;37.20;;;24.20;;
37903;SDS011;23738;50.422;18.758;2024-03-08T12:58:00;31.10;;;22.90;;
37903;SDS011;23738;50.422;18.758;2024-03-08T13:00:30;31.10;;;21.20;;
37903;SDS011;23738;50.422;18.758;2024-03-08T13:02:59;29.50;;;18.70;;
37903;SDS011;23738;50.422;18.758;2024-03-08T13:05:29;21.90;;;18.70;;
37903;SDS011;23738;50.422;18.758;2024-03-08T13:07:58;23.60;;;16.80;;
37903;SDS011;23738;50.422;18.758;2024-03-08T13:10:27;21.40;;;16.70;;
37903;SDS011;23738;50.422;18.758;2024-03-08T13:12:57;27.20;;;19.80;;
37903;SDS011;23738;50.422;18.758;2024-03-08T13:15:27;34.50;;;21.70;;
37903;SDS011;23738;50.422;18.758;2024-03-08T13:17:57;23.50;;;18.00;;
37903;SDS011;23738;50.422;18.758;2024-03-08T13:20:27;27.40;;;19.30;;
37903;SDS011;23738;50.422;18.758;2024-03-08T13:22:56;26.30;;;19.60;;
37903;SDS011;23738;50.422;18.758;2024-03-08T13:25:28;27.40;;;18.90;;
37903;SDS011;23738;50.422;18.758;2024-03-08T13:27:57;28.90;;;18.50;;
37903;SDS011;23738;50.422;18.758;2024-03-08T13:30:27;19.20;;;16.90;;
37903;SDS011;23738;50.422;18.758;2024-03-08T13:32:57;25.10;;;18.00;;
37903;SDS011;23738;50.422;18.758;2024-03-08T13:35:26;24.70;;;19.70;;
37903;SDS011;23738;50.422;18.758;2024-03-08T13:37:57;18.80;;;16.90;;
37903;SDS011;23738;50.422;18.758;2024-03-08T13:40:26;23.50;;;17.70;;
37903;SDS011;23738;50.422;18.758;2024-03-08T13:42:57;27.70;;;18.90;;
37903;SDS011;23738;50.422;18.758;2024-03-08T13:45:27;23.90;;;17.80;;
37903;SDS011;23738;50.422;18.758;2024-03-08T13:47:57;29.20;;;18.20;;
37903;SDS011;23738;50.422;18.758;2024-03-08T13:50:27;21.10;;;15.60;;
37903;SDS011;23738;50.422;18.758;2024-03-08T13:52:56;23.20;;;18.80;;
37903;SDS011;23738;50.422;18.758;2024-03-08T13:55:26;27.90;;;18.10;;
37903;SDS011;23738;50.422;18.758;2024-03-08T13:57:55;20.50;;;18.10;;
37903;SDS011;23738;50.422;18.758;2024-03-08T14:00:26;22.20;;;18.20;;
37903;SDS011;23738;50.422;18.758;2024-03-08T14:03:00;19.90;;;16.30;;
37903;SDS011;23738;50.422;18.758;2024-03-08T14:05:32;19.00;;;16.10;;
37903;SDS011;23738;50.422;18.758;2024-03-08T14:08:02;22.40;;;15.30;;
37903;SDS011;23738;50.422;18.758;2024-03-08T14:10:33;20.60;;;16.10;;
37903;SDS011;23738;50.422;18.758;2024-03-08T14:13:04;19.70;;;16.80;;
37903;SDS011;23738;50.422;18.758;2024-03-08T14:15:35;19.10;;;16.30;;
37903;SDS011;23738;50.422;18.758;2024-03-08T14:18:08;20.30;;;16.40;;
37903;SDS011;23738;50.422;18.758;2024-03-08T14:20:39;20.80;;;17.00;;
37903;SDS011;23738;50.422;18.758;2024-03-08T14:23:09;24.10;;;16.00;;
37903;SDS011;23738;50.422;18.758;2024-03-08T14:25:39;19.30;;;15.00;;
37903;SDS011;23738;50.422;18.758;2024-03-08T14:28:08;16.50;;;14.80;;
37903;SDS011;23738;50.422;18.758;2024-03-08T14:30:38;16.50;;;14.60;;